createdAt,value
2024-02-13T00:04:11.808Z,72.00
2024-02-13T00:09:17.016Z,71.40
2024-02-13T00:14:19.012Z,72.10
2024-02-13T00:19:20.900Z,72.10
2024-02-13T00:24:22.762Z,72.00
2024-02-13T00:29:24.602Z,72.00
2024-02-13T00:34:27.256Z,72.00
2024-02-13T00:39:29.281Z,71.90
2024-02-13T00:44:31.269Z,71.90
2024-02-13T00:49:33.299Z,71.80
2024-02-13T00:54:35.122Z,71.90
2024-02-13T00:59:36.949Z,71.90
2024-02-13T01:04:38.761Z,71.10
2024-02-13T01:09:40.653Z,71.70
2024-02-13T01:14:42.530Z,71.70
2024-02-13T01:19:48.229Z,71.90
2024-02-13T01:24:50.108Z,72.60
2024-02-13T01:29:52.107Z,71.70
2024-02-13T01:34:54.581Z,70.80
2024-02-13T01:39:56.638Z,71.60
2024-02-13T01:44:58.531Z,71.70
2024-02-13T01:50:00.837Z,71.60
2024-02-13T01:55:04.366Z,71.70
2024-02-13T02:00:10.112Z,71.60
2024-02-13T02:05:15.293Z,71.60
2024-02-13T02:10:17.320Z,71.60
2024-02-13T02:15:19.175Z,71.60
2024-02-13T02:20:23.554Z,71.60
2024-02-13T02:25:25.732Z,70.80
2024-02-13T02:30:27.685Z,71.50
2024-02-13T02:35:29.743Z,71.50
2024-02-13T02:40:31.592Z,71.40
2024-02-13T02:45:33.707Z,71.50
2024-02-13T02:50:35.943Z,71.30
2024-02-13T02:55:37.797Z,71.30
2024-02-13T03:00:39.704Z,71.30
2024-02-13T03:05:42.002Z,71.10
2024-02-13T03:10:44.119Z,71.00
2024-02-13T03:15:46.095Z,71.10
2024-02-13T03:20:48.529Z,71.00
2024-02-13T03:25:51.092Z,71.10
2024-02-13T03:30:55.276Z,71.00
2024-02-13T03:35:57.240Z,70.90
2024-02-13T03:41:01.017Z,70.50
2024-02-13T03:46:02.895Z,70.70
2024-02-13T03:51:05.423Z,70.70
2024-02-13T03:56:07.860Z,70.60
2024-02-13T04:01:10.305Z,70.70
2024-02-13T04:06:13.154Z,70.60
2024-02-13T04:11:17.464Z,70.10
2024-02-13T04:16:19.523Z,70.40
2024-02-13T04:21:21.614Z,70.40
2024-02-13T04:26:31.376Z,70.40
2024-02-13T04:31:40.103Z,70.30
2024-02-13T04:36:43.726Z,70.10
2024-02-13T04:41:46.098Z,69.50
2024-02-13T04:46:48.137Z,70.20
2024-02-13T04:51:50.002Z,70.00
2024-02-13T04:56:51.939Z,70.00
2024-02-13T05:01:55.077Z,69.00
2024-02-13T05:07:15.597Z,69.90
2024-02-13T05:12:17.987Z,69.10
2024-02-13T05:17:25.249Z,69.80
2024-02-13T05:22:27.369Z,69.70
2024-02-13T05:27:29.365Z,69.40
2024-02-13T05:32:32.413Z,69.60
2024-02-13T05:37:34.447Z,69.70
2024-02-13T05:42:36.425Z,69.50
2024-02-13T05:47:39.085Z,69.50
2024-02-13T05:52:42.099Z,69.40
2024-02-13T05:57:43.969Z,69.40
2024-02-13T06:02:46.828Z,69.40
2024-02-13T06:07:48.974Z,69.40
2024-02-13T06:12:51.424Z,69.30
2024-02-13T06:17:53.512Z,69.20
2024-02-13T06:22:55.410Z,69.20
2024-02-13T06:27:57.249Z,69.00
2024-02-13T06:32:59.545Z,68.90
2024-02-13T06:38:01.478Z,69.70
2024-02-13T06:43:04.880Z,68.90
2024-02-13T06:48:08.529Z,69.60
2024-02-13T06:53:10.438Z,68.00
2024-02-13T06:58:14.995Z,68.80
2024-02-13T07:03:16.931Z,68.80
2024-02-13T07:08:18.918Z,67.90
2024-02-13T07:13:21.190Z,68.60
2024-02-13T07:18:23.204Z,68.60
2024-02-13T07:23:25.236Z,68.50
2024-02-13T07:28:27.042Z,68.50
2024-02-13T07:33:30.112Z,67.60
2024-02-13T07:38:32.218Z,68.50
2024-02-13T07:43:34.078Z,67.70
2024-02-13T07:48:35.984Z,68.30
2024-02-13T07:53:37.909Z,68.30
2024-02-13T07:58:40.591Z,69.20
2024-02-13T08:03:42.534Z,68.30
2024-02-13T08:08:44.500Z,68.20
2024-02-13T08:13:46.439Z,68.20
2024-02-13T08:18:51.806Z,68.00
2024-02-13T08:23:54.377Z,68.20
2024-02-13T08:28:56.332Z,68.10
2024-02-13T08:33:58.569Z,68.20
2024-02-13T08:39:01.801Z,68.00
2024-02-13T08:44:04.428Z,68.00
2024-02-13T08:49:06.984Z,68.10
2024-02-13T08:54:12.936Z,68.10
2024-02-13T08:59:14.897Z,68.00
2024-02-13T09:04:16.811Z,68.00
2024-02-13T09:09:18.780Z,67.30
2024-02-13T09:14:20.703Z,68.00
2024-02-13T09:19:22.821Z,68.10
2024-02-13T09:24:26.424Z,68.20
2024-02-13T09:29:29.530Z,68.20
2024-02-13T09:34:31.911Z,68.00
2024-02-13T09:39:33.768Z,67.20
2024-02-13T09:44:37.667Z,68.00
2024-02-13T09:49:44.534Z,68.20
2024-02-13T09:54:48.996Z,68.30
2024-02-13T09:59:51.861Z,68.30
2024-02-13T10:04:53.701Z,68.30
2024-02-13T10:09:56.410Z,68.30
2024-02-13T10:15:01.648Z,68.20
2024-02-13T10:20:04.162Z,68.20
2024-02-13T10:25:07.574Z,68.30
2024-02-13T10:30:10.222Z,68.20
2024-02-13T10:35:12.741Z,68.30
2024-02-13T10:40:24.247Z,67.70
2024-02-13T10:45:31.937Z,68.20
2024-02-13T10:50:35.524Z,67.70
2024-02-13T10:55:41.263Z,68.30
2024-02-13T11:00:45.481Z,68.30
2024-02-13T11:05:47.467Z,68.30
2024-02-13T11:10:51.020Z,68.30
2024-02-13T11:15:59.508Z,68.40
2024-02-13T11:21:02.543Z,68.30
2024-02-13T11:26:05.229Z,67.80
2024-02-13T11:31:20.143Z,68.40
2024-02-13T11:36:24.536Z,68.50
2024-02-13T11:41:26.505Z,68.30
2024-02-13T11:46:28.459Z,68.40
2024-02-13T11:51:31.634Z,68.30
2024-02-13T11:56:36.962Z,68.40
2024-02-13T12:01:39.530Z,68.60
2024-02-13T12:06:47.099Z,68.50
2024-02-13T12:11:50.951Z,68.40
2024-02-13T12:16:54.986Z,68.50
2024-02-13T12:21:56.965Z,68.40
2024-02-13T12:26:58.974Z,67.80
2024-02-13T12:32:02.025Z,68.50
2024-02-13T12:37:09.707Z,68.40
2024-02-13T12:42:18.712Z,68.50
2024-02-13T12:47:22.988Z,68.70
2024-02-13T12:52:24.900Z,68.60
2024-02-13T12:57:31.040Z,68.50
2024-02-13T13:02:34.220Z,67.70
2024-02-13T13:07:37.480Z,68.50
2024-02-13T13:12:40.178Z,68.30
2024-02-13T13:17:43.252Z,68.40
2024-02-13T13:22:48.421Z,67.50
2024-02-13T13:27:52.067Z,68.40
2024-02-13T13:32:56.857Z,68.40
2024-02-13T13:38:02.437Z,68.40
2024-02-13T13:43:08.056Z,68.50
2024-02-13T13:48:17.340Z,68.30
2024-02-13T13:53:20.690Z,68.40
2024-02-13T13:58:24.022Z,68.30
2024-02-13T14:03:26.052Z,68.30
2024-02-13T14:08:28.655Z,68.20
2024-02-13T14:13:30.623Z,68.20
2024-02-13T14:18:32.754Z,68.20
2024-02-13T14:23:35.997Z,68.00
2024-02-13T14:28:38.263Z,68.30
2024-02-13T14:33:41.146Z,68.00
2024-02-13T14:38:43.269Z,68.20
2024-02-13T14:43:48.602Z,68.10
2024-02-13T14:48:50.874Z,68.00
2024-02-13T14:53:53.077Z,68.00
2024-02-13T14:58:55.119Z,68.10
2024-02-13T15:03:57.412Z,68.10
2024-02-13T15:09:01.288Z,67.30
2024-02-13T15:14:03.395Z,68.00
2024-02-13T15:19:07.770Z,67.90
2024-02-13T15:24:12.319Z,67.90
2024-02-13T15:29:17.941Z,67.90
2024-02-13T15:34:20.131Z,68.00
2024-02-13T15:39:40.692Z,68.00
2024-02-13T15:45:01.134Z,67.30
2024-02-13T15:50:06.991Z,68.00
2024-02-13T15:55:13.444Z,68.00
2024-02-13T16:00:21.625Z,67.70
2024-02-13T16:05:30.079Z,68.00
2024-02-13T16:10:33.480Z,67.80
2024-02-13T16:15:36.033Z,67.70
2024-02-13T16:20:38.950Z,67.80
2024-02-13T16:25:40.918Z,67.80
2024-02-13T16:30:45.716Z,67.70
2024-02-13T16:35:48.464Z,67.70
2024-02-13T16:40:51.050Z,67.60
2024-02-13T16:45:52.937Z,67.50
2024-02-13T16:50:54.831Z,67.50
2024-02-13T16:55:56.710Z,67.60
2024-02-13T17:01:02.809Z,67.50
2024-02-13T17:06:06.736Z,67.40
2024-02-13T17:11:09.596Z,67.30
2024-02-13T17:16:15.462Z,67.30
2024-02-13T17:21:17.388Z,67.30
2024-02-13T17:26:20.427Z,67.50
2024-02-13T17:31:22.469Z,67.00
2024-02-13T17:36:24.580Z,67.10
2024-02-13T17:41:28.934Z,67.80
2024-02-13T17:46:31.332Z,67.10
2024-02-13T17:51:33.249Z,67.00
2024-02-13T17:56:35.617Z,67.00
2024-02-13T18:01:37.758Z,67.00
2024-02-13T18:06:39.864Z,66.90
2024-02-13T18:11:43.369Z,66.90
2024-02-13T18:16:45.199Z,66.80
2024-02-13T18:21:50.179Z,66.80
2024-02-13T18:26:53.304Z,65.90
2024-02-13T18:31:57.149Z,65.90
2024-02-13T18:37:00.206Z,66.70
2024-02-13T18:42:02.055Z,66.70
2024-02-13T18:47:05.383Z,66.00
2024-02-13T18:52:08.907Z,66.70
2024-02-13T18:57:10.829Z,66.60
2024-02-13T19:02:14.367Z,66.70
2024-02-13T19:07:17.557Z,66.70
2024-02-13T19:12:19.769Z,66.50
2024-02-13T19:17:21.960Z,66.50
2024-02-13T19:22:24.047Z,66.40
2024-02-13T19:27:26.490Z,66.40
2024-02-13T19:32:29.854Z,66.60
2024-02-13T19:37:32.027Z,66.50
2024-02-13T19:42:34.070Z,65.30
2024-02-13T19:47:36.188Z,66.40
2024-02-13T19:52:38.784Z,66.10
2024-02-13T19:57:40.628Z,66.20
2024-02-13T20:02:43.656Z,66.20
2024-02-13T20:07:45.974Z,66.20
2024-02-13T20:12:47.817Z,66.10
2024-02-13T20:17:49.794Z,66.10
2024-02-13T20:22:52.029Z,66.00
2024-02-13T20:27:57.731Z,65.50
2024-02-13T20:33:01.149Z,66.00
2024-02-13T20:38:06.183Z,66.00
2024-02-13T20:43:11.196Z,65.80
2024-02-13T20:48:14.120Z,65.80
2024-02-13T20:53:16.031Z,65.80
2024-02-13T20:58:19.241Z,65.80
2024-02-13T21:03:21.958Z,65.80
2024-02-13T21:08:24.015Z,65.60
2024-02-13T21:13:25.951Z,65.70
2024-02-13T21:18:27.989Z,65.60
2024-02-13T21:23:48.882Z,65.70
2024-02-13T21:28:51.246Z,65.50
2024-02-13T21:33:53.341Z,65.50
2024-02-13T21:38:55.577Z,65.50
2024-02-13T21:43:57.822Z,65.50
2024-02-13T21:49:00.213Z,65.50
2024-02-13T21:54:02.705Z,65.40
2024-02-13T21:59:04.833Z,65.40
2024-02-13T22:04:06.933Z,65.40
2024-02-13T22:09:13.312Z,65.20
2024-02-13T22:14:15.533Z,65.40
2024-02-13T22:19:17.632Z,65.20
2024-02-13T22:24:20.374Z,65.30
2024-02-13T22:29:24.378Z,65.30
2024-02-13T22:34:27.905Z,65.20
2024-02-13T22:39:29.798Z,65.20
2024-02-13T22:44:31.747Z,65.20
2024-02-13T22:49:34.489Z,65.10
2024-02-13T22:54:36.363Z,65.20
2024-02-13T22:59:38.623Z,65.10
2024-02-13T23:04:42.671Z,65.10
2024-02-13T23:09:46.600Z,65.00
2024-02-13T23:14:48.458Z,65.00
2024-02-13T23:19:50.337Z,65.10
2024-02-13T23:24:52.150Z,65.00
2024-02-13T23:29:54.437Z,64.80
2024-02-13T23:34:56.746Z,65.70
2024-02-13T23:39:58.676Z,65.00
2024-02-13T23:45:00.566Z,64.90
2024-02-13T23:50:02.873Z,64.80
2024-02-13T23:55:09.745Z,64.90
